sensor_id;sensor_type;location;lat;lon;timestamp;P1;durP1;ratioP1;P2;durP2;ratioP2
26756;SDS011;23848;49.798;10.228;2022-11-15T00:01:08;13.10;;;9.23;;
26756;SDS011;23848;49.798;10.228;2022-11-15T00:03:37;13.95;;;8.85;;
26756;SDS011;23848;49.798;10.228;2022-11-15T00:06:05;13.85;;;9.18;;
26756;SDS011;23848;49.798;10.228;2022-11-15T00:08:34;13.75;;;8.93;;
26756;SDS011;23848;49.798;10.228;2022-11-15T00:11:02;13.57;;;9.27;;
26756;SDS011;23848;49.798;10.228;2022-11-15T00:13:31;13.23;;;8.82;;
26756;SDS011;23848;49.798;10.228;2022-11-15T00:16:01;14.15;;;8.88;;
26756;SDS011;23848;49.798;10.228;2022-11-15T00:18:30;13.25;;;8.55;;
26756;SDS011;23848;49.798;10.228;2022-11-15T00:21:02;13.35;;;9.05;;
26756;SDS011;23848;49.798;10.228;2022-11-15T00:23:31;12.23;;;8.43;;
26756;SDS011;23848;49.798;10.228;2022-11-15T00:26:00;11.95;;;7.97;;
26756;SDS011;23848;49.798;10.228;2022-11-15T00:28:29;12.80;;;7.30;;
26756;SDS011;23848;49.798;10.228;2022-11-15T00:31:02;11.07;;;7.70;;
26756;SDS011;23848;49.798;10.228;2022-11-15T00:33:31;12.27;;;7.50;;
26756;SDS011;23848;49.798;10.228;2022-11-15T00:36:00;10.85;;;7.75;;
26756;SDS011;23848;49.798;10.228;2022-11-15T00:38:30;11.60;;;7.43;;
26756;SDS011;23848;49.798;10.228;2022-11-15T00:41:00;10.30;;;7.35;;
26756;SDS011;23848;49.798;10.228;2022-11-15T00:43:34;9.52;;;6.93;;
26756;SDS011;23848;49.798;10.228;2022-11-15T00:46:04;10.65;;;7.03;;
26756;SDS011;23848;49.798;10.228;2022-11-15T00:48:34;10.40;;;6.90;;
26756;SDS011;23848;49.798;10.228;2022-11-15T00:51:03;9.50;;;6.13;;
26756;SDS011;23848;49.798;10.228;2022-11-15T00:53:31;8.63;;;6.43;;
26756;SDS011;23848;49.798;10.228;2022-11-15T00:56:00;8.30;;;5.82;;
26756;SDS011;23848;49.798;10.228;2022-11-15T00:58:29;8.50;;;5.55;;
26756;SDS011;23848;49.798;10.228;2022-11-15T01:01:06;8.60;;;5.35;;
26756;SDS011;23848;49.798;10.228;2022-11-15T01:03:35;8.32;;;5.82;;
26756;SDS011;23848;49.798;10.228;2022-11-15T01:06:03;7.75;;;5.45;;
26756;SDS011;23848;49.798;10.228;2022-11-15T01:08:32;8.18;;;5.60;;
26756;SDS011;23848;49.798;10.228;2022-11-15T01:11:01;6.57;;;4.93;;
26756;SDS011;23848;49.798;10.228;2022-11-15T01:13:30;7.22;;;5.20;;
26756;SDS011;23848;49.798;10.228;2022-11-15T01:15:59;8.07;;;5.80;;
26756;SDS011;23848;49.798;10.228;2022-11-15T01:18:29;8.15;;;5.30;;
26756;SDS011;23848;49.798;10.228;2022-11-15T01:20:57;7.95;;;4.53;;
26756;SDS011;23848;49.798;10.228;2022-11-15T01:23:26;8.00;;;5.30;;
26756;SDS011;23848;49.798;10.228;2022-11-15T01:25:58;6.85;;;4.63;;
26756;SDS011;23848;49.798;10.228;2022-11-15T01:28:29;7.47;;;5.03;;
26756;SDS011;23848;49.798;10.228;2022-11-15T01:30:57;7.65;;;5.25;;
26756;SDS011;23848;49.798;10.228;2022-11-15T01:33:26;8.43;;;4.90;;
26756;SDS011;23848;49.798;10.228;2022-11-15T01:35:57;5.70;;;4.20;;
26756;SDS011;23848;49.798;10.228;2022-11-15T01:38:25;7.80;;;4.78;;
26756;SDS011;23848;49.798;10.228;2022-11-15T01:40:54;5.72;;;4.22;;
26756;SDS011;23848;49.798;10.228;2022-11-15T01:43:23;6.43;;;4.75;;
26756;SDS011;23848;49.798;10.228;2022-11-15T01:45:52;6.68;;;4.53;;
26756;SDS011;23848;49.798;10.228;2022-11-15T01:48:22;7.47;;;5.03;;
26756;SDS011;23848;49.798;10.228;2022-11-15T01:50:53;7.18;;;4.65;;
26756;SDS011;23848;49.798;10.228;2022-11-15T01:53:23;7.53;;;4.70;;
26756;SDS011;23848;49.798;10.228;2022-11-15T01:55:53;6.63;;;4.70;;
26756;SDS011;23848;49.798;10.228;2022-11-15T01:58:22;7.40;;;5.22;;
26756;SDS011;23848;49.798;10.228;2022-11-15T02:00:50;6.22;;;4.15;;
26756;SDS011;23848;49.798;10.228;2022-11-15T02:03:20;6.65;;;4.68;;
26756;SDS011;23848;49.798;10.228;2022-11-15T02:05:50;7.40;;;5.00;;
26756;SDS011;23848;49.798;10.228;2022-11-15T02:08:19;6.13;;;4.65;;
26756;SDS011;23848;49.798;10.228;2022-11-15T02:10:49;7.40;;;5.57;;
26756;SDS011;23848;49.798;10.228;2022-11-15T02:13:17;6.45;;;4.88;;
26756;SDS011;23848;49.798;10.228;2022-11-15T02:15:47;7.43;;;4.93;;
26756;SDS011;23848;49.798;10.228;2022-11-15T02:18:24;6.78;;;4.40;;
26756;SDS011;23848;49.798;10.228;2022-11-15T02:20:57;7.63;;;5.20;;
26756;SDS011;23848;49.798;10.228;2022-11-15T02:29:03;7.83;;;5.87;;
26756;SDS011;23848;49.798;10.228;2022-11-15T02:31:38;11.00;;;6.27;;
26756;SDS011;23848;49.798;10.228;2022-11-15T02:34:11;7.20;;;5.60;;
26756;SDS011;23848;49.798;10.228;2022-11-15T02:36:43;10.55;;;6.28;;
26756;SDS011;23848;49.798;10.228;2022-11-15T02:39:15;10.10;;;7.20;;
26756;SDS011;23848;49.798;10.228;2022-11-15T02:41:47;8.60;;;6.93;;
26756;SDS011;23848;49.798;10.228;2022-11-15T02:44:17;8.52;;;6.53;;
26756;SDS011;23848;49.798;10.228;2022-11-15T02:46:49;9.43;;;5.97;;
26756;SDS011;23848;49.798;10.228;2022-11-15T02:49:35;9.20;;;6.30;;
26756;SDS011;23848;49.798;10.228;2022-11-15T02:52:05;8.98;;;6.22;;
26756;SDS011;23848;49.798;10.228;2022-11-15T02:54:34;9.30;;;6.68;;
26756;SDS011;23848;49.798;10.228;2022-11-15T02:57:04;9.07;;;6.00;;
26756;SDS011;23848;49.798;10.228;2022-11-15T03:02:45;9.25;;;5.97;;
26756;SDS011;23848;49.798;10.228;2022-11-15T03:05:19;9.32;;;6.72;;
26756;SDS011;23848;49.798;10.228;2022-11-15T03:07:52;8.35;;;6.22;;
26756;SDS011;23848;49.798;10.228;2022-11-15T03:10:30;8.68;;;6.35;;
26756;SDS011;23848;49.798;10.228;2022-11-15T03:13:02;10.35;;;7.22;;
26756;SDS011;23848;49.798;10.228;2022-11-15T03:15:37;10.50;;;7.45;;
26756;SDS011;23848;49.798;10.228;2022-11-15T03:18:12;10.75;;;7.60;;
26756;SDS011;23848;49.798;10.228;2022-11-15T03:20:46;9.00;;;7.28;;
26756;SDS011;23848;49.798;10.228;2022-11-15T03:23:15;8.75;;;6.45;;
26756;SDS011;23848;49.798;10.228;2022-11-15T03:25:45;10.95;;;7.55;;
26756;SDS011;23848;49.798;10.228;2022-11-15T03:28:15;9.40;;;6.40;;
26756;SDS011;23848;49.798;10.228;2022-11-15T03:30:45;10.43;;;6.60;;
26756;SDS011;23848;49.798;10.228;2022-11-15T03:33:17;9.57;;;7.22;;
26756;SDS011;23848;49.798;10.228;2022-11-15T03:35:45;8.93;;;6.72;;
26756;SDS011;23848;49.798;10.228;2022-11-15T03:38:15;10.75;;;6.95;;
26756;SDS011;23848;49.798;10.228;2022-11-15T03:40:47;10.95;;;7.05;;
26756;SDS011;23848;49.798;10.228;2022-11-15T03:43:20;10.63;;;7.10;;
26756;SDS011;23848;49.798;10.228;2022-11-15T03:45:51;8.73;;;6.50;;
26756;SDS011;23848;49.798;10.228;2022-11-15T03:48:24;10.20;;;6.65;;
26756;SDS011;23848;49.798;10.228;2022-11-15T03:50:53;9.18;;;6.50;;
26756;SDS011;23848;49.798;10.228;2022-11-15T03:53:21;9.60;;;6.70;;
26756;SDS011;23848;49.798;10.228;2022-11-15T03:55:50;9.45;;;7.05;;
26756;SDS011;23848;49.798;10.228;2022-11-15T03:58:18;11.32;;;7.18;;
26756;SDS011;23848;49.798;10.228;2022-11-15T04:00:47;11.95;;;7.30;;
26756;SDS011;23848;49.798;10.228;2022-11-15T04:03:15;9.73;;;7.05;;
26756;SDS011;23848;49.798;10.228;2022-11-15T04:05:45;8.43;;;7.03;;
26756;SDS011;23848;49.798;10.228;2022-11-15T04:08:13;12.38;;;7.95;;
26756;SDS011;23848;49.798;10.228;2022-11-15T04:10:42;10.77;;;7.93;;
26756;SDS011;23848;49.798;10.228;2022-11-15T04:13:10;12.07;;;7.60;;
26756;SDS011;23848;49.798;10.228;2022-11-15T04:15:39;10.82;;;7.07;;
26756;SDS011;23848;49.798;10.228;2022-11-15T04:18:07;11.68;;;6.93;;
26756;SDS011;23848;49.798;10.228;2022-11-15T04:20:35;8.68;;;6.63;;
26756;SDS011;23848;49.798;10.228;2022-11-15T04:23:23;10.80;;;7.82;;
26756;SDS011;23848;49.798;10.228;2022-11-15T04:26:09;10.15;;;6.15;;
26756;SDS011;23848;49.798;10.228;2022-11-15T04:28:39;9.00;;;6.45;;
26756;SDS011;23848;49.798;10.228;2022-11-15T04:31:21;11.60;;;7.05;;
26756;SDS011;23848;49.798;10.228;2022-11-15T04:33:50;8.93;;;6.20;;
26756;SDS011;23848;49.798;10.228;2022-11-15T04:36:18;9.38;;;7.05;;
26756;SDS011;23848;49.798;10.228;2022-11-15T04:39:05;9.13;;;6.22;;
26756;SDS011;23848;49.798;10.228;2022-11-15T04:41:34;9.98;;;7.20;;
26756;SDS011;23848;49.798;10.228;2022-11-15T04:44:02;10.73;;;7.35;;
26756;SDS011;23848;49.798;10.228;2022-11-15T04:46:31;10.35;;;7.30;;
26756;SDS011;23848;49.798;10.228;2022-11-15T04:48:59;9.80;;;6.82;;
26756;SDS011;23848;49.798;10.228;2022-11-15T04:51:28;8.60;;;6.80;;
26756;SDS011;23848;49.798;10.228;2022-11-15T04:53:56;9.82;;;6.53;;
26756;SDS011;23848;49.798;10.228;2022-11-15T04:56:26;10.50;;;7.25;;
26756;SDS011;23848;49.798;10.228;2022-11-15T04:58:54;9.52;;;6.57;;
26756;SDS011;23848;49.798;10.228;2022-11-15T05:01:23;10.02;;;7.38;;
26756;SDS011;23848;49.798;10.228;2022-11-15T05:03:51;9.27;;;6.28;;
26756;SDS011;23848;49.798;10.228;2022-11-15T05:06:37;10.50;;;6.30;;
26756;SDS011;23848;49.798;10.228;2022-11-15T05:09:06;9.00;;;6.07;;
26756;SDS011;23848;49.798;10.228;2022-11-15T05:11:35;9.80;;;6.10;;
26756;SDS011;23848;49.798;10.228;2022-11-15T05:14:04;9.02;;;6.20;;
26756;SDS011;23848;49.798;10.228;2022-11-15T05:16:32;7.43;;;5.55;;
26756;SDS011;23848;49.798;10.228;2022-11-15T05:19:01;8.25;;;5.45;;
26756;SDS011;23848;49.798;10.228;2022-11-15T05:21:29;9.52;;;5.88;;
26756;SDS011;23848;49.798;10.228;2022-11-15T05:23:58;7.57;;;5.38;;
26756;SDS011;23848;49.798;10.228;2022-11-15T05:26:26;9.75;;;6.22;;
26756;SDS011;23848;49.798;10.228;2022-11-15T05:28:57;10.93;;;6.63;;
26756;SDS011;23848;49.798;10.228;2022-11-15T05:31:26;9.05;;;7.13;;
26756;SDS011;23848;49.798;10.228;2022-11-15T05:33:55;11.07;;;7.80;;
26756;SDS011;23848;49.798;10.228;2022-11-15T05:36:26;11.95;;;8.65;;
26756;SDS011;23848;49.798;10.228;2022-11-15T05:38:55;11.23;;;8.85;;
26756;SDS011;23848;49.798;10.228;2022-11-15T05:41:25;10.88;;;8.27;;
26756;SDS011;23848;49.798;10.228;2022-11-15T05:43:56;11.13;;;7.97;;
26756;SDS011;23848;49.798;10.228;2022-11-15T05:46:25;14.50;;;9.15;;
26756;SDS011;23848;49.798;10.228;2022-11-15T05:48:54;12.30;;;9.30;;
26756;SDS011;23848;49.798;10.228;2022-11-15T05:51:23;10.40;;;7.97;;
26756;SDS011;23848;49.798;10.228;2022-11-15T05:53:52;11.02;;;7.40;;
26756;SDS011;23848;49.798;10.228;2022-11-15T05:56:21;10.85;;;7.63;;
26756;SDS011;23848;49.798;10.228;2022-11-15T05:58:49;12.35;;;8.30;;
26756;SDS011;23848;49.798;10.228;2022-11-15T06:01:25;14.10;;;9.68;;
26756;SDS011;23848;49.798;10.228;2022-11-15T06:03:54;13.13;;;10.10;;
26756;SDS011;23848;49.798;10.228;2022-11-15T06:06:23;13.05;;;9.73;;
26756;SDS011;23848;49.798;10.228;2022-11-15T06:08:51;14.98;;;9.13;;
26756;SDS011;23848;49.798;10.228;2022-11-15T06:11:19;11.45;;;8.40;;
26756;SDS011;23848;49.798;10.228;2022-11-15T06:13:48;11.68;;;8.00;;
26756;SDS011;23848;49.798;10.228;2022-11-15T06:16:16;11.43;;;8.05;;
26756;SDS011;23848;49.798;10.228;2022-11-15T06:18:46;11.48;;;7.72;;
26756;SDS011;23848;49.798;10.228;2022-11-15T06:21:14;12.80;;;8.32;;
26756;SDS011;23848;49.798;10.228;2022-11-15T06:23:43;13.02;;;8.52;;
26756;SDS011;23848;49.798;10.228;2022-11-15T06:26:11;12.88;;;8.30;;
26756;SDS011;23848;49.798;10.228;2022-11-15T06:28:40;16.15;;;12.23;;
26756;SDS011;23848;49.798;10.228;2022-11-15T06:31:09;17.83;;;14.40;;
26756;SDS011;23848;49.798;10.228;2022-11-15T06:33:38;22.23;;;18.00;;
26756;SDS011;23848;49.798;10.228;2022-11-15T06:36:09;20.33;;;15.10;;
26756;SDS011;23848;49.798;10.228;2022-11-15T06:38:43;16.33;;;13.68;;
26756;SDS011;23848;49.798;10.228;2022-11-15T06:41:12;18.10;;;14.30;;
26756;SDS011;23848;49.798;10.228;2022-11-15T06:43:41;17.20;;;13.38;;
26756;SDS011;23848;49.798;10.228;2022-11-15T06:46:09;16.33;;;13.23;;
26756;SDS011;23848;49.798;10.228;2022-11-15T06:48:38;21.13;;;15.88;;
26756;SDS011;23848;49.798;10.228;2022-11-15T06:51:08;20.38;;;15.43;;
26756;SDS011;23848;49.798;10.228;2022-11-15T06:53:36;18.17;;;15.05;;
26756;SDS011;23848;49.798;10.228;2022-11-15T06:56:07;19.20;;;15.40;;
26756;SDS011;23848;49.798;10.228;2022-11-15T06:58:46;19.92;;;15.43;;
26756;SDS011;23848;49.798;10.228;2022-11-15T07:01:15;18.40;;;14.40;;
26756;SDS011;23848;49.798;10.228;2022-11-15T07:03:44;17.88;;;13.95;;
26756;SDS011;23848;49.798;10.228;2022-11-15T07:06:17;15.90;;;13.10;;
26756;SDS011;23848;49.798;10.228;2022-11-15T07:08:45;17.27;;;13.70;;
26756;SDS011;23848;49.798;10.228;2022-11-15T07:11:15;19.65;;;13.10;;
26756;SDS011;23848;49.798;10.228;2022-11-15T07:13:43;18.73;;;13.63;;
26756;SDS011;23848;49.798;10.228;2022-11-15T07:16:13;19.17;;;13.18;;
26756;SDS011;23848;49.798;10.228;2022-11-15T07:18:42;15.80;;;12.85;;
26756;SDS011;23848;49.798;10.228;2022-11-15T07:21:10;14.82;;;12.20;;
26756;SDS011;23848;49.798;10.228;2022-11-15T07:23:43;17.92;;;12.50;;
26756;SDS011;23848;49.798;10.228;2022-11-15T07:26:11;17.15;;;11.88;;
26756;SDS011;23848;49.798;10.228;2022-11-15T07:28:40;18.33;;;12.52;;
26756;SDS011;23848;49.798;10.228;2022-11-15T07:31:11;15.10;;;11.35;;
26756;SDS011;23848;49.798;10.228;2022-11-15T07:33:39;14.85;;;11.07;;
26756;SDS011;23848;49.798;10.228;2022-11-15T07:36:08;16.20;;;12.13;;
26756;SDS011;23848;49.798;10.228;2022-11-15T07:38:37;15.63;;;11.88;;
26756;SDS011;23848;49.798;10.228;2022-11-15T07:41:09;14.93;;;11.30;;
26756;SDS011;23848;49.798;10.228;2022-11-15T07:43:38;16.88;;;12.52;;
26756;SDS011;23848;49.798;10.228;2022-11-15T07:46:07;14.60;;;11.35;;
26756;SDS011;23848;49.798;10.228;2022-11-15T07:48:36;13.60;;;10.43;;
26756;SDS011;23848;49.798;10.228;2022-11-15T07:51:11;14.68;;;10.07;;
26756;SDS011;23848;49.798;10.228;2022-11-15T07:53:40;14.05;;;9.45;;
26756;SDS011;23848;49.798;10.228;2022-11-15T07:56:13;11.18;;;8.88;;
26756;SDS011;23848;49.798;10.228;2022-11-15T07:58:41;12.80;;;10.00;;
26756;SDS011;23848;49.798;10.228;2022-11-15T08:01:09;13.05;;;9.93;;
26756;SDS011;23848;49.798;10.228;2022-11-15T08:03:39;15.52;;;10.30;;
26756;SDS011;23848;49.798;10.228;2022-11-15T08:06:08;17.30;;;10.18;;
26756;SDS011;23848;49.798;10.228;2022-11-15T08:08:39;12.50;;;9.45;;
26756;SDS011;23848;49.798;10.228;2022-11-15T08:11:13;15.90;;;11.35;;
26756;SDS011;23848;49.798;10.228;2022-11-15T08:13:41;14.02;;;10.38;;
26756;SDS011;23848;49.798;10.228;2022-11-15T08:16:13;14.55;;;10.02;;
26756;SDS011;23848;49.798;10.228;2022-11-15T08:18:41;14.43;;;10.18;;
26756;SDS011;23848;49.798;10.228;2022-11-15T08:21:10;13.90;;;9.90;;
26756;SDS011;23848;49.798;10.228;2022-11-15T08:23:43;15.45;;;11.00;;
26756;SDS011;23848;49.798;10.228;2022-11-15T08:26:13;15.45;;;10.68;;
26756;SDS011;23848;49.798;10.228;2022-11-15T08:28:44;16.90;;;11.73;;
26756;SDS011;23848;49.798;10.228;2022-11-15T08:31:13;16.33;;;11.88;;
26756;SDS011;23848;49.798;10.228;2022-11-15T08:33:43;17.83;;;12.73;;
26756;SDS011;23848;49.798;10.228;2022-11-15T08:36:16;20.52;;;13.23;;
26756;SDS011;23848;49.798;10.228;2022-11-15T08:38:45;33.95;;;22.15;;
26756;SDS011;23848;49.798;10.228;2022-11-15T08:41:16;23.75;;;15.65;;
26756;SDS011;23848;49.798;10.228;2022-11-15T08:43:46;28.60;;;18.33;;
26756;SDS011;23848;49.798;10.228;2022-11-15T08:46:15;26.50;;;17.08;;
26756;SDS011;23848;49.798;10.228;2022-11-15T08:48:46;18.33;;;13.05;;
26756;SDS011;23848;49.798;10.228;2022-11-15T08:51:15;20.38;;;13.77;;
26756;SDS011;23848;49.798;10.228;2022-11-15T08:53:43;16.52;;;11.23;;
26756;SDS011;23848;49.798;10.228;2022-11-15T08:56:23;14.65;;;10.48;;
26756;SDS011;23848;49.798;10.228;2022-11-15T08:58:53;14.68;;;9.98;;
26756;SDS011;23848;49.798;10.228;2022-11-15T09:01:22;15.73;;;10.35;;
26756;SDS011;23848;49.798;10.228;2022-11-15T09:03:50;15.90;;;10.85;;
26756;SDS011;23848;49.798;10.228;2022-11-15T09:06:23;16.35;;;10.25;;
26756;SDS011;23848;49.798;10.228;2022-11-15T09:08:52;13.23;;;10.27;;
26756;SDS011;23848;49.798;10.228;2022-11-15T09:11:20;13.75;;;9.27;;
26756;SDS011;23848;49.798;10.228;2022-11-15T09:13:54;13.55;;;9.23;;
26756;SDS011;23848;49.798;10.228;2022-11-15T09:16:23;11.85;;;8.68;;
26756;SDS011;23848;49.798;10.228;2022-11-15T09:18:52;10.88;;;8.57;;
26756;SDS011;23848;49.798;10.228;2022-11-15T09:21:23;12.18;;;9.57;;
26756;SDS011;23848;49.798;10.228;2022-11-15T09:23:51;18.10;;;12.60;;
26756;SDS011;23848;49.798;10.228;2022-11-15T09:26:23;15.15;;;11.88;;
26756;SDS011;23848;49.798;10.228;2022-11-15T09:28:52;19.15;;;13.07;;
26756;SDS011;23848;49.798;10.228;2022-11-15T09:31:21;13.85;;;11.45;;
26756;SDS011;23848;49.798;10.228;2022-11-15T09:33:54;14.43;;;11.73;;
26756;SDS011;23848;49.798;10.228;2022-11-15T09:36:23;13.23;;;11.27;;
26756;SDS011;23848;49.798;10.228;2022-11-15T09:38:57;12.13;;;8.68;;
26756;SDS011;23848;49.798;10.228;2022-11-15T09:41:43;13.25;;;8.57;;
26756;SDS011;23848;49.798;10.228;2022-11-15T09:44:24;11.98;;;8.98;;
26756;SDS011;23848;49.798;10.228;2022-11-15T09:46:57;12.68;;;9.10;;
26756;SDS011;23848;49.798;10.228;2022-11-15T09:49:27;14.02;;;10.52;;
26756;SDS011;23848;49.798;10.228;2022-11-15T09:51:58;12.07;;;9.77;;
26756;SDS011;23848;49.798;10.228;2022-11-15T09:54:27;13.48;;;9.32;;
26756;SDS011;23848;49.798;10.228;2022-11-15T09:57:18;11.45;;;8.98;;
26756;SDS011;23848;49.798;10.228;2022-11-15T09:59:52;12.88;;;8.85;;
26756;SDS011;23848;49.798;10.228;2022-11-15T10:02:42;11.82;;;7.95;;
26756;SDS011;23848;49.798;10.228;2022-11-15T10:05:16;12.68;;;8.45;;
26756;SDS011;23848;49.798;10.228;2022-11-15T10:07:46;10.10;;;8.00;;
26756;SDS011;23848;49.798;10.228;2022-11-15T10:10:22;13.32;;;8.15;;
26756;SDS011;23848;49.798;10.228;2022-11-15T10:12:52;11.20;;;7.50;;
26756;SDS011;23848;49.798;10.228;2022-11-15T10:15:21;11.02;;;7.53;;
26756;SDS011;23848;49.798;10.228;2022-11-15T10:17:59;10.80;;;7.20;;
26756;SDS011;23848;49.798;10.228;2022-11-15T10:20:30;9.93;;;6.60;;
26756;SDS011;23848;49.798;10.228;2022-11-15T10:23:05;7.63;;;6.03;;
26756;SDS011;23848;49.798;10.228;2022-11-15T10:25:36;8.20;;;6.70;;
26756;SDS011;23848;49.798;10.228;2022-11-15T10:28:09;8.07;;;6.22;;
26756;SDS011;23848;49.798;10.228;2022-11-15T10:30:40;10.15;;;6.03;;
26756;SDS011;23848;49.798;10.228;2022-11-15T10:33:12;8.25;;;5.97;;
26756;SDS011;23848;49.798;10.228;2022-11-15T10:35:42;8.60;;;6.10;;
26756;SDS011;23848;49.798;10.228;2022-11-15T10:38:10;10.07;;;5.65;;
26756;SDS011;23848;49.798;10.228;2022-11-15T10:40:40;6.25;;;5.25;;
26756;SDS011;23848;49.798;10.228;2022-11-15T10:43:14;7.10;;;5.43;;
26756;SDS011;23848;49.798;10.228;2022-11-15T10:45:43;8.73;;;5.60;;
26756;SDS011;23848;49.798;10.228;2022-11-15T10:48:23;9.65;;;5.88;;
26756;SDS011;23848;49.798;10.228;2022-11-15T10:50:53;7.45;;;5.55;;
26756;SDS011;23848;49.798;10.228;2022-11-15T10:53:23;8.27;;;5.55;;
26756;SDS011;23848;49.798;10.228;2022-11-15T10:55:53;12.63;;;7.10;;
26756;SDS011;23848;49.798;10.228;2022-11-15T10:58:29;8.15;;;5.95;;
26756;SDS011;23848;49.798;10.228;2022-11-15T11:01:08;9.15;;;6.30;;
26756;SDS011;23848;49.798;10.228;2022-11-15T11:03:40;7.80;;;5.70;;
26756;SDS011;23848;49.798;10.228;2022-11-15T11:06:10;9.88;;;6.13;;
26756;SDS011;23848;49.798;10.228;2022-11-15T11:08:39;8.75;;;6.40;;
26756;SDS011;23848;49.798;10.228;2022-11-15T11:11:10;8.10;;;6.28;;
26756;SDS011;23848;49.798;10.228;2022-11-15T11:13:39;9.50;;;5.78;;
26756;SDS011;23848;49.798;10.228;2022-11-15T11:19:02;9.43;;;5.70;;
26756;SDS011;23848;49.798;10.228;2022-11-15T11:21:37;6.97;;;5.43;;
26756;SDS011;23848;49.798;10.228;2022-11-15T11:24:10;8.63;;;5.63;;
26756;SDS011;23848;49.798;10.228;2022-11-15T11:26:42;7.35;;;5.75;;
26756;SDS011;23848;49.798;10.228;2022-11-15T11:29:14;8.00;;;5.50;;
26756;SDS011;23848;49.798;10.228;2022-11-15T11:31:49;7.72;;;5.47;;
26756;SDS011;23848;49.798;10.228;2022-11-15T11:34:26;9.13;;;5.20;;
26756;SDS011;23848;49.798;10.228;2022-11-15T11:37:05;6.25;;;4.75;;
26756;SDS011;23848;49.798;10.228;2022-11-15T11:39:41;5.88;;;4.32;;
26756;SDS011;23848;49.798;10.228;2022-11-15T11:42:14;9.82;;;5.07;;
26756;SDS011;23848;49.798;10.228;2022-11-15T11:47:14;6.03;;;4.30;;
26756;SDS011;23848;49.798;10.228;2022-11-15T11:49:52;6.43;;;4.90;;
26756;SDS011;23848;49.798;10.228;2022-11-15T11:52:23;8.73;;;5.53;;
26756;SDS011;23848;49.798;10.228;2022-11-15T11:54:58;9.07;;;5.57;;
26756;SDS011;23848;49.798;10.228;2022-11-15T11:57:32;10.13;;;5.88;;
26756;SDS011;23848;49.798;10.228;2022-11-15T12:00:03;7.25;;;4.85;;
26756;SDS011;23848;49.798;10.228;2022-11-15T12:02:33;8.48;;;5.55;;
26756;SDS011;23848;49.798;10.228;2022-11-15T12:05:08;8.68;;;6.40;;
26756;SDS011;23848;49.798;10.228;2022-11-15T12:07:37;8.18;;;5.70;;
26756;SDS011;23848;49.798;10.228;2022-11-15T12:10:15;7.22;;;5.38;;
26756;SDS011;23848;49.798;10.228;2022-11-15T12:12:47;7.47;;;5.53;;
26756;SDS011;23848;49.798;10.228;2022-11-15T12:15:18;12.32;;;8.02;;
26756;SDS011;23848;49.798;10.228;2022-11-15T12:17:48;8.80;;;5.85;;
26756;SDS011;23848;49.798;10.228;2022-11-15T12:20:18;7.30;;;5.30;;
26756;SDS011;23848;49.798;10.228;2022-11-15T12:22:48;10.30;;;5.63;;
26756;SDS011;23848;49.798;10.228;2022-11-15T12:25:20;7.85;;;5.97;;
26756;SDS011;23848;49.798;10.228;2022-11-15T12:27:50;8.13;;;6.22;;
26756;SDS011;23848;49.798;10.228;2022-11-15T12:30:22;7.20;;;5.57;;
26756;SDS011;23848;49.798;10.228;2022-11-15T12:32:52;5.82;;;4.88;;
26756;SDS011;23848;49.798;10.228;2022-11-15T12:35:23;8.68;;;5.57;;
26756;SDS011;23848;49.798;10.228;2022-11-15T12:37:52;9.00;;;5.53;;
26756;SDS011;23848;49.798;10.228;2022-11-15T12:40:26;9.25;;;5.55;;
26756;SDS011;23848;49.798;10.228;2022-11-15T12:42:57;7.15;;;5.57;;
26756;SDS011;23848;49.798;10.228;2022-11-15T12:45:27;6.55;;;4.95;;
26756;SDS011;23848;49.798;10.228;2022-11-15T12:48:20;7.10;;;5.43;;
26756;SDS011;23848;49.798;10.228;2022-11-15T12:50:53;8.00;;;5.93;;
26756;SDS011;23848;49.798;10.228;2022-11-15T12:53:25;8.43;;;5.93;;
26756;SDS011;23848;49.798;10.228;2022-11-15T12:56:08;7.63;;;5.60;;
26756;SDS011;23848;49.798;10.228;2022-11-15T12:58:41;8.93;;;5.90;;
26756;SDS011;23848;49.798;10.228;2022-11-15T13:01:09;6.88;;;5.53;;
26756;SDS011;23848;49.798;10.228;2022-11-15T13:06:39;9.45;;;5.82;;
26756;SDS011;23848;49.798;10.228;2022-11-15T13:11:55;7.05;;;5.45;;
26756;SDS011;23848;49.798;10.228;2022-11-15T13:14:43;8.27;;;5.05;;
26756;SDS011;23848;49.798;10.228;2022-11-15T13:17:23;7.50;;;4.30;;
26756;SDS011;23848;49.798;10.228;2022-11-15T13:19:53;6.63;;;4.47;;
26756;SDS011;23848;49.798;10.228;2022-11-15T13:22:26;6.35;;;4.85;;
26756;SDS011;23848;49.798;10.228;2022-11-15T13:25:16;6.72;;;3.95;;
26756;SDS011;23848;49.798;10.228;2022-11-15T13:27:46;6.10;;;4.40;;
26756;SDS011;23848;49.798;10.228;2022-11-15T13:30:17;5.53;;;4.25;;
26756;SDS011;23848;49.798;10.228;2022-11-15T13:32:47;5.82;;;4.10;;
26756;SDS011;23848;49.798;10.228;2022-11-15T13:35:18;7.03;;;4.90;;
26756;SDS011;23848;49.798;10.228;2022-11-15T13:37:49;7.90;;;4.35;;
26756;SDS011;23848;49.798;10.228;2022-11-15T13:40:24;6.45;;;4.50;;
26756;SDS011;23848;49.798;10.228;2022-11-15T13:42:54;7.00;;;5.13;;
26756;SDS011;23848;49.798;10.228;2022-11-15T13:45:22;8.05;;;4.75;;
26756;SDS011;23848;49.798;10.228;2022-11-15T13:47:53;6.35;;;4.10;;
26756;SDS011;23848;49.798;10.228;2022-11-15T13:50:27;8.43;;;4.43;;
26756;SDS011;23848;49.798;10.228;2022-11-15T13:52:58;6.38;;;4.22;;
26756;SDS011;23848;49.798;10.228;2022-11-15T13:55:28;7.25;;;4.65;;
26756;SDS011;23848;49.798;10.228;2022-11-15T13:57:59;11.25;;;5.15;;
26756;SDS011;23848;49.798;10.228;2022-11-15T14:00:34;11.50;;;5.60;;
26756;SDS011;23848;49.798;10.228;2022-11-15T14:03:05;8.55;;;5.78;;
26756;SDS011;23848;49.798;10.228;2022-11-15T14:05:34;7.80;;;5.40;;
26756;SDS011;23848;49.798;10.228;2022-11-15T14:08:12;8.32;;;4.95;;
26756;SDS011;23848;49.798;10.228;2022-11-15T14:10:50;7.82;;;5.30;;
26756;SDS011;23848;49.798;10.228;2022-11-15T14:13:33;8.50;;;6.07;;
26756;SDS011;23848;49.798;10.228;2022-11-15T14:18:51;10.70;;;6.50;;
26756;SDS011;23848;49.798;10.228;2022-11-15T14:21:20;8.40;;;6.43;;
26756;SDS011;23848;49.798;10.228;2022-11-15T14:23:50;8.98;;;6.43;;
26756;SDS011;23848;49.798;10.228;2022-11-15T14:26:28;8.93;;;5.70;;
26756;SDS011;23848;49.798;10.228;2022-11-15T14:28:57;8.93;;;6.35;;
26756;SDS011;23848;49.798;10.228;2022-11-15T14:31:26;8.45;;;6.22;;
26756;SDS011;23848;49.798;10.228;2022-11-15T14:33:54;7.78;;;5.55;;
26756;SDS011;23848;49.798;10.228;2022-11-15T14:36:23;8.00;;;5.95;;
26756;SDS011;23848;49.798;10.228;2022-11-15T14:38:53;8.35;;;5.03;;
26756;SDS011;23848;49.798;10.228;2022-11-15T14:41:22;13.60;;;9.70;;
26756;SDS011;23848;49.798;10.228;2022-11-15T14:43:51;19.73;;;11.57;;
26756;SDS011;23848;49.798;10.228;2022-11-15T14:46:22;15.43;;;10.25;;
26756;SDS011;23848;49.798;10.228;2022-11-15T14:48:51;11.90;;;8.48;;
26756;SDS011;23848;49.798;10.228;2022-11-15T14:51:19;13.55;;;9.15;;
26756;SDS011;23848;49.798;10.228;2022-11-15T14:53:48;12.15;;;8.20;;
26756;SDS011;23848;49.798;10.228;2022-11-15T14:56:18;11.73;;;8.32;;
26756;SDS011;23848;49.798;10.228;2022-11-15T14:58:47;10.05;;;7.03;;
26756;SDS011;23848;49.798;10.228;2022-11-15T15:01:23;10.05;;;7.32;;
26756;SDS011;23848;49.798;10.228;2022-11-15T15:03:52;10.25;;;7.18;;
26756;SDS011;23848;49.798;10.228;2022-11-15T15:06:25;9.18;;;6.70;;
26756;SDS011;23848;49.798;10.228;2022-11-15T15:08:53;17.00;;;10.50;;
26756;SDS011;23848;49.798;10.228;2022-11-15T15:11:24;11.77;;;7.70;;